createdAt,value
2022-08-07T00:04:16.850Z,15.3
2022-08-07T00:09:24.050Z,15.28
2022-08-07T00:14:32.246Z,15.25
2022-08-07T00:19:39.074Z,15.24
2022-08-07T00:24:47.925Z,15.22
2022-08-07T00:29:54.856Z,15.22
2022-08-07T00:35:02.001Z,15.28
2022-08-07T00:40:09.478Z,15.33
2022-08-07T00:45:18.091Z,15.34
2022-08-07T00:50:25.498Z,15.43
2022-08-07T00:55:32.942Z,15.52
2022-08-07T01:00:40.497Z,15.62
2022-08-07T01:05:48.874Z,15.74
2022-08-07T01:10:55.576Z,15.79
2022-08-07T01:16:03.914Z,15.8
2022-08-07T01:21:11.065Z,15.82
2022-08-07T01:26:34.928Z,15.88
2022-08-07T01:31:41.685Z,15.92
2022-08-07T01:36:49.373Z,15.88
2022-08-07T01:41:57.978Z,15.88
2022-08-07T01:47:06.162Z,15.86
2022-08-07T01:52:14.796Z,15.84
2022-08-07T01:57:21.499Z,15.84
2022-08-07T02:02:28.703Z,15.83
2022-08-07T02:09:07.664Z,15.65
2022-08-07T02:14:14.128Z,15.34
2022-08-07T02:19:22.252Z,15.13
2022-08-07T02:24:30.811Z,14.99
2022-08-07T02:29:39.061Z,14.92
2022-08-07T02:34:46.623Z,14.84
2022-08-07T02:39:53.210Z,14.83
2022-08-07T02:45:01.783Z,14.76
2022-08-07T02:50:08.862Z,14.76
2022-08-07T02:55:21.819Z,14.85
2022-08-07T03:00:28.402Z,14.85
2022-08-07T03:05:36.740Z,14.82
2022-08-07T03:10:44.076Z,14.79
2022-08-07T03:15:53.050Z,14.74
2022-08-07T03:21:01.130Z,14.76
2022-08-07T03:26:09.059Z,14.78
2022-08-07T03:31:17.336Z,14.78
2022-08-07T03:36:25.328Z,14.78
2022-08-07T03:41:32.054Z,14.79
2022-08-07T03:46:39.512Z,14.84
2022-08-07T03:51:47.428Z,14.93
2022-08-07T03:56:54.611Z,14.98
2022-08-07T04:02:02.436Z,15.01
2022-08-07T04:07:09.006Z,15.01
2022-08-07T04:12:16.855Z,15.02
2022-08-07T04:17:25.293Z,15.05
2022-08-07T04:22:33.359Z,15.12
2022-08-07T04:27:40.339Z,15.21
2022-08-07T04:32:48.790Z,15.3
2022-08-07T04:37:57.275Z,15.38
2022-08-07T04:43:05.110Z,15.48
2022-08-07T04:48:12.794Z,15.56
2022-08-07T04:53:21.357Z,15.61
2022-08-07T04:58:28.724Z,15.74
2022-08-07T05:03:37.690Z,15.83
2022-08-07T05:08:45.036Z,15.98
2022-08-07T05:13:53.119Z,16.08
2022-08-07T05:19:00.483Z,16.15
2022-08-07T05:24:09.487Z,16.23
2022-08-07T05:29:17.035Z,16.4
2022-08-07T05:34:25.229Z,16.52
2022-08-07T05:39:34.095Z,16.74
2022-08-07T05:44:41.818Z,16.86
2022-08-07T05:49:49.193Z,17.04
2022-08-07T05:54:57.874Z,17.26
2022-08-07T06:00:06.413Z,17.46
2022-08-07T06:05:13.461Z,17.51
2022-08-07T06:10:21.041Z,17.66
2022-08-07T06:15:29.646Z,17.88
2022-08-07T06:20:36.054Z,18.36
2022-08-07T06:25:43.903Z,18.75
2022-08-07T06:30:52.884Z,18.83
2022-08-07T06:35:59.803Z,18.88
2022-08-07T06:41:08.127Z,19.19
2022-08-07T06:46:16.190Z,19.6
2022-08-07T06:51:24.154Z,20.2
2022-08-07T06:56:32.381Z,21.19
2022-08-07T07:01:41.203Z,22.2
2022-08-07T07:06:48.978Z,23.72
2022-08-07T07:11:56.647Z,24.68
2022-08-07T07:17:06.065Z,24.58
2022-08-07T07:22:12.689Z,24.48
2022-08-07T07:27:21.043Z,24.22
2022-08-07T07:32:42.746Z,23.3
2022-08-07T07:38:02.836Z,22.64
2022-08-07T07:43:11.637Z,22.28
2022-08-07T07:48:21.279Z,21.86
2022-08-07T07:53:29.203Z,21.94
2022-08-07T07:58:37.019Z,21.78
2022-08-07T08:03:44.858Z,21.79
2022-08-07T08:08:52.103Z,21.82
2022-08-07T08:13:59.750Z,22.01
2022-08-07T08:19:07.806Z,23.16
2022-08-07T08:24:15.775Z,23.99
2022-08-07T08:29:23.755Z,24.76
2022-08-07T08:34:31.294Z,24.14
2022-08-07T08:39:39.728Z,24.16
2022-08-07T08:44:47.626Z,24.66
2022-08-07T08:49:55.835Z,24.96
2022-08-07T08:55:02.754Z,25.19
2022-08-07T09:00:10.935Z,25.48
2022-08-07T09:05:20.084Z,25.58
2022-08-07T09:10:27.448Z,25.18
2022-08-07T09:15:35.979Z,25.3
2022-08-07T09:20:49.688Z,25.86
2022-08-07T09:25:57.343Z,26.21
2022-08-07T09:31:04.143Z,26.9
2022-08-07T09:36:13.047Z,26.76
2022-08-07T09:41:21.962Z,27.25
2022-08-07T09:46:29.343Z,26.94
2022-08-07T09:51:37.693Z,26.17
2022-08-07T09:56:44.383Z,25.61
2022-08-07T10:01:52.729Z,25.18
2022-08-07T10:07:01.451Z,24.83
2022-08-07T10:12:09.240Z,24.56
2022-08-07T10:17:17.293Z,24.84
2022-08-07T10:22:25.725Z,25.11
2022-08-07T10:27:32.959Z,24.75
2022-08-07T10:32:39.923Z,24.61
2022-08-07T10:37:47.900Z,24.74
2022-08-07T10:42:55.659Z,24.89
2022-08-07T10:48:02.763Z,24.93
2022-08-07T10:53:10.072Z,24.98
2022-08-07T10:58:17.962Z,25.26
2022-08-07T11:03:24.377Z,25.32
2022-08-07T11:08:32.737Z,25.12
2022-08-07T11:13:39.638Z,25.42
2022-08-07T11:18:47.641Z,25.96
2022-08-07T11:23:53.818Z,25.93
2022-08-07T11:29:01.478Z,26.46
2022-08-07T11:34:08.831Z,25.96
2022-08-07T11:39:16.725Z,25.53
2022-08-07T11:44:24.316Z,25.49
2022-08-07T11:49:37.496Z,25.1
2022-08-07T11:54:45.529Z,24.76
2022-08-07T11:59:52.602Z,24.72
2022-08-07T12:05:00.371Z,24.8
2022-08-07T12:10:08.186Z,25.03
2022-08-07T12:15:16.781Z,25.21
2022-08-07T12:20:24.940Z,25.08
2022-08-07T12:25:34.171Z,25.11
2022-08-07T12:30:41.497Z,25.22
2022-08-07T12:35:54.420Z,25.7
2022-08-07T12:41:00.378Z,25.7
2022-08-07T12:46:08.153Z,25.97
2022-08-07T12:51:15.353Z,26.02
2022-08-07T12:56:23.238Z,25.86
2022-08-07T13:01:31.318Z,25.76
2022-08-07T13:06:38.468Z,25.75
2022-08-07T13:11:45.531Z,25.48
2022-08-07T13:16:53.385Z,25.42
2022-08-07T13:22:01.244Z,25.52
2022-08-07T13:27:09.040Z,26.03
2022-08-07T13:32:16.729Z,26.62
2022-08-07T13:37:24.693Z,26.75
2022-08-07T13:42:33.690Z,26.8
2022-08-07T13:47:41.308Z,26.28
2022-08-07T13:52:47.583Z,26.35
2022-08-07T13:57:55.738Z,26.86
2022-08-07T14:03:02.883Z,27.16
2022-08-07T14:08:10.101Z,26.6
2022-08-07T14:13:17.697Z,26.53
2022-08-07T14:18:25.287Z,26.79
2022-08-07T14:23:32.732Z,27.14
2022-08-07T14:28:40.597Z,26.8
2022-08-07T14:33:46.493Z,26.46
2022-08-07T14:39:02.157Z,26.47
2022-08-07T14:44:09.178Z,26.15
2022-08-07T14:49:17.636Z,25.86
2022-08-07T14:54:24.505Z,25.85
2022-08-07T14:59:32.064Z,25.64
2022-08-07T15:04:39.329Z,25.36
2022-08-07T15:09:47.131Z,25.22
2022-08-07T15:14:55.443Z,25.16
2022-08-07T15:20:03.417Z,25.22
2022-08-07T15:25:11.278Z,25.19
2022-08-07T15:30:19.034Z,25.02
2022-08-07T15:35:26.300Z,24.89
2022-08-07T15:40:33.890Z,24.75
2022-08-07T15:45:41.460Z,24.96
2022-08-07T15:50:49.591Z,24.84
2022-08-07T15:55:57.697Z,24.84
2022-08-07T16:01:06.544Z,24.75
2022-08-07T16:06:15.641Z,24.36
2022-08-07T16:11:22.942Z,23.97
2022-08-07T16:16:38.020Z,23.56
2022-08-07T16:21:45.590Z,23.17
2022-08-07T16:26:53.748Z,23.02
2022-08-07T16:32:00.731Z,22.88
2022-08-07T16:37:08.902Z,22.62
2022-08-07T16:42:16.821Z,22.51
2022-08-07T16:47:23.741Z,22.38
2022-08-07T16:52:31.542Z,22.24
2022-08-07T16:57:38.136Z,22.11
2022-08-07T17:02:45.336Z,21.98
2022-08-07T17:07:52.588Z,21.8
2022-08-07T17:12:59.106Z,21.61
2022-08-07T17:18:07.261Z,21.46
2022-08-07T17:23:15.617Z,21.32
2022-08-07T17:28:23.265Z,21.19
2022-08-07T17:33:30.392Z,21.01
2022-08-07T17:38:38.166Z,20.86
2022-08-07T17:43:46.375Z,20.65
2022-08-07T17:48:53.334Z,20.49
2022-08-07T17:54:02.061Z,20.4
2022-08-07T17:59:10.018Z,20.38
2022-08-07T18:04:26.325Z,20.28
2022-08-07T18:09:33.017Z,20.18
2022-08-07T18:14:40.597Z,20.03
2022-08-07T18:19:49.133Z,19.97
2022-08-07T18:24:58.326Z,19.88
2022-08-07T18:30:06.254Z,19.8
2022-08-07T18:35:14.117Z,19.72
2022-08-07T18:40:21.335Z,19.7
2022-08-07T18:45:29.176Z,19.61
2022-08-07T18:50:36.458Z,19.51
2022-08-07T18:55:58.941Z,19.39
2022-08-07T19:01:05.499Z,19.3
2022-08-07T19:06:13.298Z,19.2
2022-08-07T19:11:20.839Z,19.14
2022-08-07T19:16:28.384Z,19.09
2022-08-07T19:21:36.445Z,18.98
2022-08-07T19:26:43.794Z,18.89
2022-08-07T19:31:53.174Z,18.72
2022-08-07T19:37:00.985Z,18.65
2022-08-07T19:42:08.861Z,18.61
2022-08-07T19:47:16.487Z,18.52
2022-08-07T19:52:26.391Z,18.46
2022-08-07T19:57:33.658Z,18.35
2022-08-07T20:02:42.235Z,18.25
2022-08-07T20:07:50.099Z,18.19
2022-08-07T20:12:58.207Z,18.12
2022-08-07T20:18:06.291Z,18.11
2022-08-07T20:23:12.887Z,18.07
2022-08-07T20:28:21.203Z,18.04
2022-08-07T20:33:28.550Z,17.98
2022-08-07T20:38:37.081Z,17.88
2022-08-07T20:43:45.354Z,17.83
2022-08-07T20:48:52.578Z,17.83
2022-08-07T20:54:01.623Z,17.83
2022-08-07T20:59:16.887Z,17.86
2022-08-07T21:04:23.837Z,17.91
2022-08-07T21:09:32.064Z,17.94
2022-08-07T21:14:39.565Z,17.92
2022-08-07T21:19:46.141Z,17.88
2022-08-07T21:24:53.705Z,17.76
2022-08-07T21:30:01.645Z,17.74
2022-08-07T21:35:09.642Z,17.65
2022-08-07T21:40:17.497Z,17.59
2022-08-07T21:45:24.097Z,17.52
2022-08-07T21:50:33.160Z,17.43
2022-08-07T21:55:40.378Z,17.4
2022-08-07T22:00:47.788Z,17.36
2022-08-07T22:05:55.414Z,17.32
2022-08-07T22:11:03.687Z,17.32
2022-08-07T22:16:11.845Z,17.33
2022-08-07T22:21:20.022Z,17.33
2022-08-07T22:26:27.925Z,17.36
2022-08-07T22:31:35.449Z,17.33
2022-08-07T22:36:42.451Z,17.35
2022-08-07T22:41:50.091Z,17.33
2022-08-07T22:46:59.278Z,17.32
2022-08-07T22:52:06.280Z,17.32
2022-08-07T22:57:14.815Z,17.3
2022-08-07T23:02:22.409Z,17.26
2022-08-07T23:07:30.474Z,17.16
2022-08-07T23:12:37.336Z,17.09
2022-08-07T23:17:43.928Z,17.02
2022-08-07T23:22:51.725Z,16.99
2022-08-07T23:27:58.941Z,17.04
2022-08-07T23:33:06.777Z,17.1
2022-08-07T23:38:14.649Z,17.08
2022-08-07T23:43:22.391Z,17.01
2022-08-07T23:48:30.283Z,16.91
2022-08-07T23:53:37.833Z,16.89
2022-08-07T23:58:45.627Z,16.9
